Time;durP1;ratioP1;P1;durP2;ratioP2;P2;SDS_P1;SDS_P2;PMS_P1;PMS_P2;Temp;Humidity;BMP_temperature;BMP_pressure;BME280_temperature;BME280_humidity;BME280_pressure;Samples;Min_cycle;Max_cycle;Signal;HPM_P1;HPM_P2
2022/07/30 00:02:21;;;;;;;12.15;9.57;;;665.60;2432.00;;;;;;5034354;28;20099;-77
2022/07/30 00:04:47;;;;;;;19.45;11.20;;;640.90;2432.00;;;;;;5034416;28;20025;-78
2022/07/30 00:07:13;;;;;;;13.18;10.57;;;640.70;2432.00;;;;;;5034283;28;20238;-76
2022/07/30 00:09:39;;;;;;;13.88;10.43;;;640.80;2432.00;;;;;;5016707;28;20104;-76
2022/07/30 00:12:06;;;;;;;14.10;11.52;;;640.60;2432.00;;;;;;5033931;28;20096;-77
2022/07/30 00:14:33;;;;;;;13.30;10.32;;;640.60;2432.00;;;;;;5034038;28;20481;-77
2022/07/30 00:17:03;;;;;;;18.27;11.10;;;640.60;2432.00;;;;;;5016278;28;20403;-77
2022/07/30 00:19:29;;;;;;;16.20;10.80;;;640.60;2432.00;;;;;;5033514;28;20025;-78
2022/07/30 00:21:55;;;;;;;16.67;10.90;;;640.60;2432.00;;;;;;5034076;28;20075;-77
2022/07/30 00:24:22;;;;;;;14.88;11.52;;;640.70;2432.00;;;;;;5016333;28;20022;-77
2022/07/30 00:26:48;;;;;;;12.88;10.68;;;640.80;2432.00;;;;;;5033987;28;20021;-77
2022/07/30 00:29:17;;;;;;;13.50;10.50;;;640.80;2432.00;;;;;;5031568;28;20022;-78
2022/07/30 00:31:43;;;;;;;14.32;11.23;;;640.80;2432.00;;;;;;5015658;28;20501;-78
2022/07/30 00:34:09;;;;;;;13.43;11.82;;;640.80;2432.00;;;;;;5033877;28;20022;-79
2022/07/30 00:36:35;;;;;;;17.05;12.07;;;640.90;2432.00;;;;;;5016080;28;20386;-77
2022/07/30 00:39:00;;;;;;;16.90;11.75;;;640.90;2432.00;;;;;;5015179;28;20036;-77
2022/07/30 00:41:29;;;;;;;15.55;11.00;;;640.90;2432.00;;;;;;5015869;28;20116;-77
2022/07/30 00:43:55;;;;;;;13.57;11.02;;;640.90;2432.00;;;;;;5033220;28;20363;-77
2022/07/30 00:46:21;;;;;;;16.17;11.93;;;640.90;2432.00;;;;;;5008007;28;20063;-77
2022/07/30 00:48:46;;;;;;;15.38;12.52;;;640.90;2432.00;;;;;;5026223;28;20017;-77
2022/07/30 00:51:12;;;;;;;13.57;11.43;;;640.90;2432.00;;;;;;5028642;28;20030;-79
2022/07/30 00:53:38;;;;;;;15.55;11.43;;;640.90;2432.00;;;;;;5015188;28;20019;-78
2022/07/30 00:56:04;;;;;;;13.32;11.10;;;665.60;2432.00;;;;;;5032684;28;20471;-77
2022/07/30 00:58:31;;;;;;;17.92;12.55;;;665.70;2432.00;;;;;;5014765;28;20048;-76
2022/07/30 01:00:56;;;;;;;15.88;12.35;;;665.70;2432.00;;;;;;5032418;28;20022;-77
2022/07/30 01:03:22;;;;;;;17.08;12.95;;;665.60;2432.00;;;;;;5032713;28;20036;-77
2022/07/30 01:05:48;;;;;;;17.58;12.75;;;640.90;2432.00;;;;;;5032550;28;20104;-77
2022/07/30 01:08:14;;;;;;;18.23;12.50;;;640.90;2432.00;;;;;;5014860;28;20029;-77
2022/07/30 01:10:40;;;;;;;18.48;12.23;;;640.90;2432.00;;;;;;5033261;28;20426;-77
2022/07/30 01:13:06;;;;;;;17.13;12.32;;;665.60;2432.00;;;;;;5015091;28;20029;-78
2022/07/30 01:15:33;;;;;;;14.15;11.80;;;665.70;2432.00;;;;;;5014981;28;20370;-76
2022/07/30 01:18:02;;;;;;;14.82;11.07;;;665.70;2432.00;;;;;;5033325;28;20013;-76
2022/07/30 01:21:08;;;;;;;22.50;12.68;;;665.70;2432.00;;;;;;5032962;28;20025;-77
2022/07/30 01:23:38;;;;;;;15.88;11.90;;;665.70;2432.00;;;;;;5032528;28;20099;-77
2022/07/30 01:26:11;;;;;;;17.42;11.60;;;665.90;2432.00;;;;;;5014731;28;20490;-77
2022/07/30 01:28:40;;;;;;;17.75;12.27;;;665.90;2432.00;;;;;;5032692;28;20048;-77
2022/07/30 01:31:07;;;;;;;17.67;11.50;;;665.90;2432.00;;;;;;5031520;28;20025;-77
2022/07/30 01:33:39;;;;;;;15.13;11.60;;;665.90;2432.00;;;;;;5015064;28;20021;-76
2022/07/30 01:36:09;;;;;;;15.25;12.35;;;665.90;2432.00;;;;;;5032846;28;20059;-77
2022/07/30 01:38:37;;;;;;;16.05;12.50;;;665.80;2432.00;;;;;;5032776;28;20022;-76
2022/07/30 01:41:04;;;;;;;16.55;12.52;;;665.80;2432.00;;;;;;5032953;28;20014;-77
2022/07/30 01:43:31;;;;;;;16.50;12.38;;;665.70;2432.00;;;;;;5032703;28;20064;-76
2022/07/30 01:45:58;;;;;;;12.38;11.13;;;665.70;2432.00;;;;;;5015024;28;20021;-78
2022/07/30 01:48:25;;;;;;;17.77;11.30;;;665.60;2432.00;;;;;;5032865;28;20021;-76
2022/07/30 01:50:53;;;;;;;18.55;11.40;;;665.60;2432.00;;;;;;5032803;28;20056;-77
2022/07/30 01:53:25;;;;;;;19.00;12.57;;;640.90;2432.00;;;;;;5032732;28;20020;-76
2022/07/30 01:55:53;;;;;;;14.18;11.60;;;640.90;2432.00;;;;;;5032632;28;20029;-77
2022/07/30 01:58:22;;;;;;;23.77;11.85;;;640.90;2432.00;;;;;;5032655;28;20415;-78
2022/07/30 02:00:49;;;;;;;16.27;12.18;;;640.90;2432.00;;;;;;5032622;28;20021;-77
2022/07/30 02:03:15;;;;;;;16.15;12.43;;;640.70;2432.00;;;;;;5032654;28;20096;-78
2022/07/30 02:05:44;;;;;;;27.25;13.93;;;640.80;2432.00;;;;;;5032783;28;20022;-77
2022/07/30 02:08:12;;;;;;;17.17;12.43;;;640.90;2432.00;;;;;;5014516;28;20038;-77
2022/07/30 02:10:48;;;;;;;13.45;12.02;;;640.70;2432.00;;;;;;5032633;28;20097;-78
2022/07/30 02:13:16;;;;;;;;;;;640.70;2432.00;;;;;;5032864;28;20129;-77
2022/07/30 02:16:08;;;;;;;17.98;13.15;;;640.70;2432.00;;;;;;5032483;28;19905;-77
2022/07/30 02:18:47;;;;;;;20.17;13.55;;;640.70;2432.00;;;;;;5026608;28;20068;-76
2022/07/30 02:21:18;;;;;;;19.35;14.65;;;640.70;2432.00;;;;;;5032593;28;20017;-77
2022/07/30 02:23:47;;;;;;;16.13;13.80;;;640.70;2432.00;;;;;;5014837;28;20151;-77
2022/07/30 02:26:18;;;;;;;15.25;13.02;;;640.50;2432.00;;;;;;5032475;28;20418;-77
2022/07/30 02:28:48;;;;;;;15.48;13.80;;;640.50;2432.00;;;;;;5014650;28;20061;-77
2022/07/30 02:31:18;;;;;;;15.68;12.50;;;640.70;2432.00;;;;;;5031993;28;20056;-78
2022/07/30 02:33:47;;;;;;;15.15;12.80;;;640.60;2432.00;;;;;;5032544;28;20029;-77
2022/07/30 02:36:15;;;;;;;14.68;13.07;;;640.70;2432.00;;;;;;5014626;28;20053;-77
2022/07/30 02:38:43;;;;;;;15.82;12.25;;;640.70;2432.00;;;;;;5032297;28;20021;-78
2022/07/30 02:41:10;;;;;;;13.23;11.55;;;640.70;2432.00;;;;;;5032584;28;20544;-77
2022/07/30 02:43:39;;;;;;;13.70;12.20;;;640.90;2432.00;;;;;;5035781;28;20463;-77
2022/07/30 02:46:06;;;;;;;13.02;11.25;;;640.80;2432.00;;;;;;5035988;28;20048;-76
2022/07/30 02:48:33;;;;;;;15.23;11.75;;;640.90;2432.00;;;;;;5035716;28;20097;-77
2022/07/30 02:51:01;;;;;;;15.93;11.15;;;665.60;2432.00;;;;;;5035842;28;20071;-76
2022/07/30 02:53:29;;;;;;;15.95;11.57;;;640.90;2432.00;;;;;;5035861;28;20017;-77
2022/07/30 02:55:56;;;;;;;14.27;11.63;;;640.90;2432.00;;;;;;5035738;28;20057;-77
2022/07/30 02:58:24;;;;;;;14.65;12.68;;;640.90;2432.00;;;;;;5035967;28;20028;-77
2022/07/30 03:00:53;;;;;;;15.80;12.50;;;640.90;2432.00;;;;;;5035558;28;20068;-77
2022/07/30 03:03:20;;;;;;;16.25;12.50;;;640.90;2432.00;;;;;;5035528;28;20026;-76
2022/07/30 03:05:50;;;;;;;16.35;11.82;;;640.90;2432.00;;;;;;5035615;28;20021;-76
2022/07/30 03:08:16;;;;;;;14.20;12.15;;;640.90;2432.00;;;;;;5035575;28;20029;-77
2022/07/30 03:10:43;;;;;;;14.63;11.48;;;640.90;2432.00;;;;;;5035651;28;20033;-77
2022/07/30 03:13:10;;;;;;;18.58;11.98;;;640.90;2432.00;;;;;;5035303;28;20470;-77
2022/07/30 03:15:40;;;;;;;17.70;11.88;;;640.90;2432.00;;;;;;5035748;28;20478;-77
2022/07/30 03:18:10;;;;;;;15.05;11.60;;;640.90;2432.00;;;;;;5035641;28;20017;-76
2022/07/30 03:20:37;;;;;;;12.75;11.40;;;640.90;2432.00;;;;;;5035416;28;20104;-76
2022/07/30 03:23:05;;;;;;;14.20;11.60;;;640.90;2432.00;;;;;;5035400;28;20014;-77
2022/07/30 03:25:31;;;;;;;19.38;11.93;;;640.90;2432.00;;;;;;5020037;28;20049;-76
2022/07/30 03:28:00;;;;;;;22.50;11.50;;;640.90;2432.00;;;;;;5043425;28;20017;-77
2022/07/30 03:30:26;;;;;;;17.77;12.18;;;640.90;2432.00;;;;;;5042313;28;20094;-76
2022/07/30 03:32:54;;;;;;;18.00;11.45;;;665.60;2432.00;;;;;;5017549;28;20417;-76
2022/07/30 03:35:23;;;;;;;11.63;10.32;;;640.90;2432.00;;;;;;5035192;28;20033;-76
2022/07/30 03:37:50;;;;;;;19.70;12.32;;;665.70;2432.00;;;;;;5034956;28;20053;-75
2022/07/30 03:40:17;;;;;;;16.70;12.20;;;640.90;2432.00;;;;;;5034942;28;20096;-76
2022/07/30 03:42:44;;;;;;;18.10;13.65;;;640.80;2432.00;;;;;;5032560;28;20467;-76
2022/07/30 03:45:12;;;;;;;20.63;13.93;;;640.70;2432.00;;;;;;5034870;28;20036;-77
2022/07/30 03:47:40;;;;;;;20.05;12.63;;;640.70;2432.00;;;;;;5017051;28;20018;-76
2022/07/30 03:50:07;;;;;;;21.27;13.57;;;640.50;2432.00;;;;;;5017068;28;20379;-77
2022/07/30 03:52:36;;;;;;;18.45;12.27;;;640.60;2432.00;;;;;;5034506;28;20032;-78
2022/07/30 03:55:03;;;;;;;12.40;11.07;;;640.70;2432.00;;;;;;5034135;28;20017;-77
2022/07/30 03:57:29;;;;;;;20.77;11.77;;;640.70;2432.00;;;;;;5016919;28;20065;-77
2022/07/30 03:59:55;;;;;;;14.80;11.60;;;640.70;2432.00;;;;;;5034618;28;20025;-77
2022/07/30 04:02:21;;;;;;;16.77;11.50;;;640.70;2432.00;;;;;;5034591;28;20029;-78
2022/07/30 04:04:47;;;;;;;12.95;11.23;;;640.70;2432.00;;;;;;5016906;28;20025;-78
2022/07/30 04:07:13;;;;;;;14.43;11.88;;;640.80;2432.00;;;;;;5016833;28;20034;-78
2022/07/30 04:09:38;;;;;;;15.13;12.32;;;640.70;2432.00;;;;;;5034399;28;20021;-77
2022/07/30 04:12:05;;;;;;;13.13;10.88;;;640.70;2432.00;;;;;;5016572;28;20083;-77
2022/07/30 04:14:39;;;;;;;14.73;10.90;;;640.70;2432.00;;;;;;5015997;28;20495;-77
2022/07/30 04:17:16;;;;;;;14.30;10.98;;;640.70;2432.00;;;;;;5016502;28;20041;-78
2022/07/30 04:19:49;;;;;;;14.48;11.30;;;640.70;2432.00;;;;;;5034198;28;20017;-78
2022/07/30 04:22:26;;;;;;;16.85;10.95;;;640.90;2432.00;;;;;;5034346;28;20384;-78
2022/07/30 04:24:53;;;;;;;12.70;11.35;;;640.90;2432.00;;;;;;5034211;28;20459;-77
2022/07/30 04:27:19;;;;;;;13.32;11.98;;;640.80;2432.00;;;;;;5016519;28;20068;-78
2022/07/30 04:29:46;;;;;;;18.10;12.43;;;665.80;2432.00;;;;;;5016288;28;20025;-79
2022/07/30 04:32:12;;;;;;;14.98;10.80;;;640.80;2432.00;;;;;;5033940;28;20499;-78
2022/07/30 04:34:48;;;;;;;13.98;11.95;;;640.90;2432.00;;;;;;5034120;28;20498;-79
2022/07/30 04:37:16;;;;;;;16.42;11.48;;;640.90;2432.00;;;;;;5033976;28;20112;-78
2022/07/30 04:39:41;;;;;;;13.52;10.63;;;665.60;2432.00;;;;;;5016139;28;20018;-77
2022/07/30 04:42:07;;;;;;;13.32;10.27;;;665.60;2432.00;;;;;;5033820;28;20025;-77
2022/07/30 04:44:33;;;;;;;13.23;10.18;;;665.70;2432.00;;;;;;5015906;28;20493;-77
2022/07/30 04:46:59;;;;;;;12.68;10.20;;;665.70;2432.00;;;;;;5033721;28;20497;-78
2022/07/30 04:49:26;;;;;;;11.60;9.65;;;665.70;2432.00;;;;;;5033836;28;20037;-78
2022/07/30 04:51:53;;;;;;;12.32;9.27;;;665.80;2432.00;;;;;;5015910;28;20108;-76
2022/07/30 04:54:20;;;;;;;13.32;9.15;;;666.00;2432.00;;;;;;5033503;28;20097;-77
2022/07/30 04:56:47;;;;;;;17.65;9.98;;;666.00;2432.00;;;;;;5030899;28;20033;-75
2022/07/30 04:59:16;;;;;;;11.30;8.73;;;666.00;2432.00;;;;;;5033452;28;20474;-77
2022/07/30 05:01:45;;;;;;;14.25;9.40;;;666.00;2432.00;;;;;;5033375;28;20033;-76
2022/07/30 05:04:12;;;;;;;13.38;8.73;;;666.10;2432.00;;;;;;5033310;28;20482;-76
2022/07/30 05:06:39;;;;;;;12.45;8.45;;;691.20;2432.00;;;;;;5033220;28;20467;-75
2022/07/30 05:09:05;;;;;;;12.98;9.18;;;666.20;2432.00;;;;;;5033222;28;20021;-77
2022/07/30 05:11:31;;;;;;;17.40;9.13;;;666.50;2432.00;;;;;;5033373;28;20052;-75
2022/07/30 05:13:57;;;;;;;11.68;8.45;;;666.50;2432.00;;;;;;5033026;28;20025;-76
2022/07/30 05:16:23;;;;;;;9.23;7.55;;;691.20;2432.00;;;;;;5032769;28;20025;-78
2022/07/30 05:18:49;;;;;;;15.13;8.85;;;691.30;2432.00;;;;;;5033313;28;20482;-77
2022/07/30 05:21:15;;;;;;;14.90;8.43;;;691.40;2432.00;;;;;;5015309;28;20025;-77
2022/07/30 05:23:41;;;;;;;10.70;7.97;;;691.60;2432.00;;;;;;5033048;28;20021;-77
2022/07/30 05:26:06;;;;;;;9.90;7.82;;;691.60;2432.00;;;;;;5033231;28;20021;-75
2022/07/30 05:28:32;;;;;;;12.75;8.20;;;691.80;2432.00;;;;;;5032993;28;20100;-75
2022/07/30 05:30:58;;;;;;;13.75;8.07;;;691.90;2432.00;;;;;;5032602;28;20034;-76
2022/07/30 05:33:24;;;;;;;11.73;8.38;;;692.10;2432.00;;;;;;5032971;28;20029;-75
2022/07/30 05:35:50;;;;;;;13.15;8.18;;;716.80;2432.00;;;;;;5032718;28;20021;-78
2022/07/30 05:38:16;;;;;;;12.30;7.53;;;716.80;2406.40;;;;;;5032940;28;20391;-76
2022/07/30 05:40:43;;;;;;;9.82;7.18;;;716.80;2432.00;;;;;;5032771;28;20022;-76
2022/07/30 05:43:09;;;;;;;12.35;7.03;;;716.90;2406.40;;;;;;5032920;28;20108;-78
2022/07/30 05:45:35;;;;;;;9.18;6.82;;;717.00;2380.80;;;;;;5032728;28;20042;-76
2022/07/30 05:48:01;;;;;;;13.05;7.63;;;717.00;2380.80;;;;;;5032938;28;20095;-78
2022/07/30 05:50:26;;;;;;;8.52;7.60;;;716.90;2355.20;;;;;;5032667;28;20032;-76
2022/07/30 05:52:52;;;;;;;9.05;7.90;;;716.90;2355.20;;;;;;5032660;28;20518;-76
2022/07/30 05:55:18;;;;;;;10.25;7.18;;;716.90;2380.80;;;;;;5033035;28;20475;-77
2022/07/30 05:57:44;;;;;;;14.35;8.15;;;716.90;2355.20;;;;;;5032485;28;20032;-76
2022/07/30 06:00:11;;;;;;;9.57;7.20;;;716.90;2380.80;;;;;;5032410;28;20475;-78
2022/07/30 06:02:39;;;;;;;10.85;8.38;;;716.80;2355.20;;;;;;5032754;28;20021;-77
2022/07/30 06:05:05;;;;;;;11.07;7.82;;;716.80;2355.20;;;;;;5032787;28;20065;-76
2022/07/30 06:07:31;;;;;;;13.07;8.30;;;716.90;2355.20;;;;;;5032642;28;20083;-75
2022/07/30 06:09:59;;;;;;;11.93;8.18;;;716.90;2355.20;;;;;;5032635;28;20463;-77
2022/07/30 06:12:28;;;;;;;11.50;7.15;;;716.90;2355.20;;;;;;5032452;28;20028;-78
2022/07/30 06:14:55;;;;;;;11.90;8.02;;;716.80;2355.20;;;;;;5014757;28;20079;-76
2022/07/30 06:17:20;;;;;;;11.48;8.63;;;717.10;2355.20;;;;;;5034580;28;20056;-77
2022/07/30 06:19:47;;;;;;;12.20;7.60;;;716.80;2355.20;;;;;;5036388;28;20021;-77
2022/07/30 06:22:13;;;;;;;9.45;7.53;;;716.80;2380.80;;;;;;5036399;28;20030;-78
2022/07/30 06:24:38;;;;;;;12.90;7.47;;;716.90;2355.20;;;;;;5036355;28;20013;-77
2022/07/30 06:27:04;;;;;;;14.88;7.97;;;717.10;2355.20;;;;;;5036379;28;20022;-78
2022/07/30 06:29:31;;;;;;;16.88;7.35;;;717.20;2329.60;;;;;;5036161;28;20045;-75
2022/07/30 06:31:57;;;;;;;10.85;7.70;;;717.50;2304.00;;;;;;5035741;28;20048;-76
2022/07/30 06:34:22;;;;;;;14.98;7.25;;;717.60;2252.80;;;;;;5036109;28;20021;-76
2022/07/30 06:36:48;;;;;;;12.35;8.43;;;717.60;2252.80;;;;;;5035865;28;20103;-77
2022/07/30 06:39:14;;;;;;;15.88;8.02;;;717.50;2227.20;;;;;;5036156;28;20053;-74
2022/07/30 06:41:40;;;;;;;16.70;7.82;;;717.50;2252.80;;;;;;5036141;28;20024;-77
2022/07/30 06:44:06;;;;;;;10.23;8.13;;;717.50;2252.80;;;;;;5036045;28;20029;-78
2022/07/30 06:46:31;;;;;;;10.30;7.80;;;717.50;2227.20;;;;;;5036302;28;20467;-77
2022/07/30 06:48:57;;;;;;;11.05;7.50;;;717.70;2227.20;;;;;;5036229;28;20053;-82
2022/07/30 06:51:23;;;;;;;11.10;7.63;;;742.40;2227.20;;;;;;5036071;28;20068;-78
2022/07/30 06:53:49;;;;;;;14.65;7.65;;;742.50;2201.60;;;;;;5027613;28;20037;-78
2022/07/30 06:56:14;;;;;;;17.50;7.95;;;742.60;2176.00;;;;;;5051870;28;20065;-78
2022/07/30 06:58:40;;;;;;;14.23;8.30;;;742.60;2201.60;;;;;;5030492;28;20029;-79
2022/07/30 07:01:06;;;;;;;15.45;8.55;;;742.90;2176.00;;;;;;5035545;28;20025;-78
2022/07/30 07:03:32;;;;;;;11.10;7.95;;;742.90;2176.00;;;;;;5035684;28;20541;-78
2022/07/30 07:05:57;;;;;;;11.88;7.72;;;742.90;2150.40;;;;;;5018051;28;20026;-77
2022/07/30 07:08:23;;;;;;;13.05;8.50;;;742.90;2176.00;;;;;;5035492;28;20017;-78
2022/07/30 07:10:49;;;;;;;13.82;8.82;;;743.00;2176.00;;;;;;5035525;28;20411;-77
2022/07/30 07:13:15;;;;;;;11.13;8.30;;;743.10;2150.40;;;;;;5035446;28;20043;-76
2022/07/30 07:15:41;;;;;;;9.90;7.90;;;743.30;2150.40;;;;;;5035345;28;20096;-77
2022/07/30 07:18:07;;;;;;;11.70;9.00;;;768.10;2124.80;;;;;;5035413;28;20087;-78
2022/07/30 07:20:33;;;;;;;10.75;8.27;;;768.30;2124.80;;;;;;5018071;28;20029;-78
2022/07/30 07:23:00;;;;;;;8.95;8.05;;;768.40;2048.00;;;;;;5035591;28;20104;-77
2022/07/30 07:25:26;;;;;;;13.55;8.52;;;768.40;2073.60;;;;;;5035460;28;20108;-77
2022/07/30 07:27:52;;;;;;;11.50;7.88;;;768.40;2073.60;;;;;;5033580;28;20018;-78
2022/07/30 07:30:17;;;;;;;9.90;8.25;;;768.60;2048.00;;;;;;5035106;28;20546;-76
2022/07/30 07:32:43;;;;;;;21.70;9.00;;;768.80;2073.60;;;;;;5035251;28;20081;-78
2022/07/30 07:35:09;;;;;;;11.77;8.48;;;793.60;2022.40;;;;;;5033729;28;20026;-78
2022/07/30 07:37:35;;;;;;;14.88;8.73;;;793.60;1996.80;;;;;;5035267;28;20068;-78
2022/07/30 07:40:00;;;;;;;14.43;8.30;;;793.70;1971.20;;;;;;5035278;28;20022;-78
2022/07/30 07:42:26;;;;;;;18.23;10.13;;;793.90;1971.20;;;;;;5035154;28;20030;-77
2022/07/30 07:44:52;;;;;;;13.23;8.25;;;794.00;1945.60;;;;;;5017390;28;20109;-77
2022/07/30 07:47:18;;;;;;;15.55;7.97;;;794.00;1920.00;;;;;;5035084;28;20112;-78
2022/07/30 07:49:44;;;;;;;10.43;8.13;;;794.10;1920.00;;;;;;5017156;28;20540;-78
2022/07/30 07:52:09;;;;;;;12.95;8.77;;;794.20;1894.40;;;;;;5034979;28;20047;-77
2022/07/30 07:54:35;;;;;;;14.45;8.48;;;794.40;1894.40;;;;;;5034753;28;20082;-78
2022/07/30 07:57:02;;;;;;;11.13;8.02;;;794.50;1868.80;;;;;;5034897;28;20038;-77
2022/07/30 07:59:28;;;;;;;12.40;8.63;;;819.20;1868.80;;;;;;5016725;28;20568;-77
2022/07/30 08:01:54;;;;;;;14.00;8.98;;;819.30;1843.20;;;;;;5034749;28;20068;-79
2022/07/30 08:04:19;;;;;;;13.20;8.32;;;794.50;1817.60;;;;;;5016748;28;20132;-78
2022/07/30 08:06:45;;;;;;;12.38;8.18;;;794.40;1817.60;;;;;;5034693;28;20375;-78
2022/07/30 08:09:11;;;;;;;12.38;8.57;;;794.50;1817.60;;;;;;5034812;28;20034;-78
2022/07/30 08:11:37;;;;;;;11.93;7.88;;;794.50;1792.00;;;;;;5034552;28;20040;-78
2022/07/30 08:14:02;;;;;;;11.43;8.10;;;794.50;1792.00;;;;;;5034728;28;20018;-78
2022/07/30 08:16:28;;;;;;;16.80;8.85;;;794.50;1792.00;;;;;;5034241;28;20068;-79
2022/07/30 08:18:54;;;;;;;11.10;8.40;;;794.50;1792.00;;;;;;5016893;28;20040;-79
2022/07/30 08:21:19;;;;;;;10.57;8.15;;;794.40;1792.00;;;;;;5033320;28;20613;-79
2022/07/30 08:23:45;;;;;;;13.90;9.73;;;794.40;1817.60;;;;;;5034389;28;20440;-78
2022/07/30 08:26:11;;;;;;;13.63;8.25;;;794.40;1817.60;;;;;;5034010;28;20040;-77
2022/07/30 08:28:37;;;;;;;11.55;8.32;;;794.50;1817.60;;;;;;5033869;28;20052;-77
2022/07/30 08:31:03;;;;;;;13.98;9.15;;;794.50;1817.60;;;;;;5033694;28;20025;-77
2022/07/30 08:33:28;;;;;;;14.95;8.30;;;794.50;1817.60;;;;;;5034083;28;20056;-77
2022/07/30 08:35:54;;;;;;;14.95;9.23;;;794.50;1817.60;;;;;;5033887;28;20075;-78
2022/07/30 08:38:20;;;;;;;13.10;8.73;;;794.40;1817.60;;;;;;5015466;28;20052;-79
2022/07/30 08:40:46;;;;;;;11.65;8.57;;;794.20;1843.20;;;;;;5014643;28;20108;-79
2022/07/30 08:43:11;;;;;;;32.90;9.77;;;794.10;1843.20;;;;;;5033480;28;20021;-77
2022/07/30 08:45:38;;;;;;;36.42;13.25;;;793.90;1971.20;;;;;;5033931;28;20093;-79
2022/07/30 08:48:09;;;;;;;19.23;12.85;;;768.50;2432.00;;;;;;5016320;28;20025;-77
2022/07/30 08:50:35;;;;;;;17.60;12.30;;;743.10;2432.00;;;;;;5016240;28;20037;-76
2022/07/30 08:53:02;;;;;;;22.08;11.00;;;742.70;2432.00;;;;;;5033280;28;20056;-77
2022/07/30 08:55:28;;;;;;;20.85;11.77;;;742.40;2432.00;;;;;;5033488;28;20071;-76
2022/07/30 08:57:54;;;;;;;20.98;11.90;;;717.70;2432.00;;;;;;5032376;28;20120;-76
2022/07/30 09:00:20;;;;;;;21.25;12.82;;;717.50;2432.00;;;;;;5032380;28;20017;-76
2022/07/30 09:02:46;;;;;;;24.05;12.40;;;717.50;2432.00;;;;;;5032258;28;20044;-76
2022/07/30 09:05:12;;;;;;;17.02;11.32;;;717.40;2432.00;;;;;;5032204;28;20034;-76
2022/07/30 09:07:39;;;;;;;12.93;11.18;;;717.40;2432.00;;;;;;5032381;28;20028;-76
2022/07/30 09:10:06;;;;;;;14.23;10.60;;;717.40;2432.00;;;;;;5014772;28;20037;-77
2022/07/30 09:12:41;;;;;;;17.70;11.10;;;717.40;2432.00;;;;;;5032514;28;20031;-77
2022/07/30 09:15:22;;;;;;;19.05;11.63;;;717.30;2432.00;;;;;;5014777;28;20079;-77
2022/07/30 09:17:51;;;;;;;15.55;10.98;;;717.40;2432.00;;;;;;5031048;28;20029;-78
2022/07/30 09:20:18;;;;;;;15.30;11.23;;;717.40;2432.00;;;;;;5032233;28;20044;-78
2022/07/30 09:22:47;;;;;;;17.17;10.25;;;717.40;2432.00;;;;;;5032207;28;20406;-77
2022/07/30 09:25:13;;;;;;;24.10;12.32;;;717.20;2432.00;;;;;;5032214;28;20017;-77
2022/07/30 09:27:46;;;;;;;37.80;21.00;;;717.30;2432.00;;;;;;5014223;28;20040;-78
2022/07/30 09:30:13;;;;;;;21.63;14.85;;;691.80;2432.00;;;;;;5014258;28;20112;-76
2022/07/30 09:32:55;;;;;;;28.48;14.80;;;691.20;2432.00;;;;;;5010585;28;20093;-78
2022/07/30 09:35:21;;;;;;;20.83;14.93;;;666.00;2432.00;;;;;;5010139;28;20022;-78
2022/07/30 09:37:58;;;;;;;17.35;14.20;;;665.70;2432.00;;;;;;5011151;28;20049;-79
2022/07/30 09:40:24;;;;;;;21.20;15.85;;;665.80;2432.00;;;;;;5011041;28;20480;-77
2022/07/30 09:43:10;;;;;;;26.70;17.13;;;665.70;2432.00;;;;;;5010012;28;20148;-78
2022/07/30 09:45:48;;;;;;;22.55;16.45;;;665.70;2432.00;;;;;;4998621;28;20081;-75
2022/07/30 09:48:26;;;;;;;27.30;18.00;;;640.90;2432.00;;;;;;5004852;28;20026;-75
2022/07/30 09:50:52;;;;;;;26.38;17.33;;;640.90;2432.00;;;;;;5009954;28;20026;-76
2022/07/30 09:53:21;;;;;;;21.92;16.50;;;640.70;2432.00;;;;;;5012852;28;20018;-76
2022/07/30 09:55:47;;;;;;;22.23;17.35;;;640.70;2432.00;;;;;;5010684;28;20096;-76
2022/07/30 09:58:13;;;;;;;24.00;17.25;;;640.90;2432.00;;;;;;5001787;28;20116;-77
2022/07/30 10:00:40;;;;;;;24.20;18.67;;;640.90;2432.00;;;;;;5002966;28;20101;-74
2022/07/30 10:03:25;;;;;;;20.90;18.15;;;640.80;2432.00;;;;;;5010807;28;20036;-78
2022/07/30 10:05:58;;;;;;;27.13;21.05;;;665.60;2432.00;;;;;;5008776;28;20480;-79
2022/07/30 10:08:40;;;;;;;21.33;19.02;;;665.60;2432.00;;;;;;5009961;28;20053;-78
2022/07/30 10:11:12;;;;;;;24.90;18.13;;;665.90;2432.00;;;;;;4997091;28;20109;-79
2022/07/30 10:13:41;;;;;;;24.42;16.92;;;666.00;2432.00;;;;;;5006884;28;20033;-78
2022/07/30 10:16:08;;;;;;;24.67;19.35;;;666.20;2432.00;;;;;;5013496;28;20386;-78
2022/07/30 10:18:35;;;;;;;20.80;18.70;;;666.20;2432.00;;;;;;5011892;28;20037;-79
2022/07/30 10:21:03;;;;;;;25.52;19.42;;;666.00;2432.00;;;;;;5012202;28;20467;-79
2022/07/30 10:23:31;;;;;;;25.13;18.40;;;665.90;2432.00;;;;;;5012172;28;20033;-78
2022/07/30 10:25:58;;;;;;;18.65;16.70;;;666.00;2432.00;;;;;;5009128;28;20030;-79
2022/07/30 10:28:25;;;;;;;21.33;15.93;;;666.00;2432.00;;;;;;4997905;28;20031;-79
2022/07/30 10:30:52;;;;;;;17.58;15.80;;;666.20;2432.00;;;;;;5008275;28;20026;-78
2022/07/30 10:33:18;;;;;;;18.50;16.63;;;666.20;2432.00;;;;;;5011174;28;20050;-78
2022/07/30 10:35:44;;;;;;;18.40;15.10;;;666.50;2432.00;;;;;;5010799;28;20022;-76
2022/07/30 10:38:12;;;;;;;16.40;14.70;;;691.30;2432.00;;;;;;5027170;28;20438;-78
2022/07/30 10:40:49;;;;;;;17.52;14.57;;;691.60;2432.00;;;;;;5010783;28;20022;-77
2022/07/30 10:43:30;;;;;;;16.23;13.40;;;691.80;2432.00;;;;;;5006334;28;20058;-78
2022/07/30 10:46:12;;;;;;;13.90;12.50;;;716.80;2432.00;;;;;;5012490;28;20030;-73
2022/07/30 10:48:38;;;;;;;16.60;12.65;;;717.20;2432.00;;;;;;5010721;28;20423;-77
2022/07/30 10:51:04;;;;;;;19.27;13.95;;;717.50;2432.00;;;;;;5010778;28;20041;-78
2022/07/30 10:53:47;;;;;;;19.02;13.38;;;742.70;2432.00;;;;;;5009638;28;20026;-75
2022/07/30 10:56:15;;;;;;;17.83;13.93;;;743.10;2432.00;;;;;;5010112;28;20037;-75
2022/07/30 10:59:00;;;;;;;18.40;15.52;;;768.00;2432.00;;;;;;5012238;28;20538;-77
2022/07/30 11:01:49;;;;;;;18.15;14.38;;;768.00;2432.00;;;;;;5012293;28;20018;-75
2022/07/30 11:04:23;;;;;;;16.83;13.15;;;743.10;2432.00;;;;;;5013580;28;20076;-76
2022/07/30 11:06:50;;;;;;;15.95;14.02;;;768.00;2432.00;;;;;;5015646;28;20019;-77
2022/07/30 11:09:38;;;;;;;16.92;15.13;;;768.00;2432.00;;;;;;5030872;28;20018;-76
2022/07/30 11:12:05;;;;;;;19.38;15.57;;;768.30;2432.00;;;;;;5015565;28;20123;-76
2022/07/30 11:14:46;;;;;;;20.30;15.20;;;768.30;2432.00;;;;;;5015304;28;20018;-77
2022/07/30 11:17:16;;;;;;;22.98;18.48;;;768.20;2432.00;;;;;;5015368;28;20092;-77
2022/07/30 11:20:01;;;;;;;26.98;21.23;;;743.30;2432.00;;;;;;5014998;28;20026;-77
2022/07/30 11:22:51;;;;;;;21.25;18.10;;;743.00;2432.00;;;;;;5015354;28;20029;-77
2022/07/30 11:25:21;;;;;;;24.63;18.33;;;742.90;2432.00;;;;;;5013120;28;20034;-78
2022/07/30 11:27:49;;;;;;;23.25;20.85;;;743.00;2432.00;;;;;;5013886;28;20025;-77
2022/07/30 11:30:14;;;;;;;22.92;20.50;;;743.00;2432.00;;;;;;5013769;28;20018;-76
2022/07/30 11:32:48;;;;;;;30.73;26.05;;;742.90;2432.00;;;;;;5027962;28;20053;-77
2022/07/30 11:35:21;;;;;;;25.30;22.60;;;742.80;2432.00;;;;;;5016936;28;20026;-76
2022/07/30 11:38:20;;;;;;;25.33;21.40;;;742.80;2432.00;;;;;;5034428;28;20513;-76
2022/07/30 11:40:45;;;;;;;26.60;20.70;;;742.50;2432.00;;;;;;5034654;28;20471;-76
2022/07/30 11:43:18;;;;;;;25.75;20.20;;;742.50;2432.00;;;;;;5034485;28;20101;-76
2022/07/30 11:45:52;;;;;;;21.77;17.38;;;717.70;2432.00;;;;;;5034661;28;20022;-77
2022/07/30 11:48:19;;;;;;;24.73;16.95;;;717.50;2432.00;;;;;;5034416;28;20028;-76
2022/07/30 11:50:46;;;;;;;18.92;16.98;;;717.10;2432.00;;;;;;5034696;28;20017;-75
2022/07/30 11:53:18;;;;;;;26.15;18.90;;;717.20;2432.00;;;;;;5016857;28;20029;-76
2022/07/30 11:55:54;;;;;;;27.30;20.10;;;717.20;2432.00;;;;;;5034474;28;20018;-77
2022/07/30 11:58:36;;;;;;;25.83;23.13;;;717.50;2432.00;;;;;;5031908;28;20038;-75
2022/07/30 12:01:15;;;;;;;29.75;23.42;;;717.30;2432.00;;;;;;5031970;28;20479;-76
2022/07/30 12:03:43;;;;;;;30.55;24.02;;;717.50;2432.00;;;;;;5034258;28;20030;-77
2022/07/30 12:06:20;;;;;;;29.30;24.60;;;717.50;2432.00;;;;;;5016617;28;20017;-75
2022/07/30 12:08:50;;;;;;;34.70;26.65;;;717.50;2432.00;;;;;;5032466;28;20475;-76
2022/07/30 12:11:16;;;;;;;33.15;26.20;;;717.40;2432.00;;;;;;5034514;28;20013;-78